Terminal Aerodrome Forecast
Issued by NWS Amarillo, TX

Home | Current Version | Previous Version | Text Only | Print | Product List | Glossary On
Versions: 1 2 3 4 5 6 7 8 9 10 11 12 13 14 15 16
000
FTUS44 KAMA 060500
TAFGUY
TAF
KGUY 060520Z 0606/0706 18014KT P6SM BKN200
     FM061500 02020KT P6SM TSRA BKN050CB
     FM070100 04020G30KT 5SM -TSRA SCT020 OVC040CB=

USA.gov is the U.S. government's official web portal to all federal, state and local government web resources and services.